createdAt,value
2019-06-10T00:03:04.454Z,14.50
2019-06-10T00:09:11.524Z,14.80
2019-06-10T00:15:12.587Z,14.80
2019-06-10T00:21:14.203Z,14.80
2019-06-10T00:27:15.748Z,14.80
2019-06-10T00:33:17.499Z,14.80
2019-06-10T00:39:22.282Z,14.70
2019-06-10T00:45:23.817Z,14.60
2019-06-10T00:57:28.200Z,14.10
2019-06-10T01:15:35.214Z,13.50
2019-06-10T01:21:36.868Z,13.30
2019-06-10T01:33:42.818Z,13.10
2019-06-10T01:39:44.261Z,13.10
2019-06-10T01:45:45.785Z,12.90
2019-06-10T02:09:54.680Z,13.40
2019-06-10T02:28:02.504Z,13.80
2019-06-10T02:34:04.234Z,13.80
2019-06-10T02:40:07.172Z,13.80
2019-06-10T02:58:23.176Z,13.40
2019-06-10T03:04:31.426Z,13.40
2019-06-10T03:10:31.081Z,13.20
2019-06-10T03:16:32.921Z,13.20
2019-06-10T03:22:35.527Z,13.20
2019-06-10T03:28:37.043Z,13.30
2019-06-10T03:34:46.032Z,13.40
2019-06-10T03:40:43.426Z,13.50
2019-06-10T03:46:44.975Z,13.60
2019-06-10T03:52:46.457Z,13.90
2019-06-10T03:58:47.996Z,14.10
2019-06-10T04:04:49.458Z,14.20
2019-06-10T04:10:52.083Z,14.10
2019-06-10T04:16:53.581Z,14.10
2019-06-10T04:22:55.156Z,14.20
2019-06-10T04:28:56.646Z,14.30
2019-06-10T04:34:58.182Z,14.50
2019-06-10T04:40:59.709Z,14.70
2019-06-10T04:47:02.713Z,14.80
2019-06-10T04:53:04.501Z,15.00
2019-06-10T04:59:06.058Z,15.20
2019-06-10T05:05:09.702Z,15.50
2019-06-10T05:11:12.822Z,15.70
2019-06-10T05:17:14.468Z,16.10
2019-06-10T05:23:15.996Z,16.80
2019-06-10T05:29:17.468Z,17.50
2019-06-10T05:35:20.476Z,17.70
2019-06-10T05:41:24.868Z,17.80
2019-06-10T05:47:27.926Z,18.10
2019-06-10T05:53:29.306Z,18.20
2019-06-10T05:59:31.571Z,18.60
2019-06-10T06:05:36.107Z,18.70
2019-06-10T06:11:37.892Z,19.50
2019-06-10T06:17:39.322Z,20.60
2019-06-10T06:23:43.733Z,21.40
2019-06-10T06:29:46.167Z,21.80
2019-06-10T06:35:48.762Z,21.80
2019-06-10T06:41:52.708Z,21.40
2019-06-10T06:47:55.991Z,20.90
2019-06-10T06:53:57.593Z,21.60
2019-06-10T06:59:59.092Z,22.30
2019-06-10T07:06:02.611Z,22.40
2019-06-10T07:12:06.749Z,22.70
2019-06-10T07:18:09.011Z,22.50
2019-06-10T07:24:12.586Z,22.50
2019-06-10T07:30:15.182Z,22.20
2019-06-10T07:36:17.189Z,22.10
2019-06-10T07:42:18.654Z,21.50
2019-06-10T07:48:22.210Z,20.90
2019-06-10T07:54:23.936Z,21.00
2019-06-10T08:00:25.758Z,21.20
2019-06-10T08:06:27.260Z,21.80
2019-06-10T08:12:29.142Z,22.40
2019-06-10T08:18:38.416Z,22.60
2019-06-10T08:24:35.320Z,22.70
2019-06-10T08:30:37.652Z,22.60
2019-06-10T08:36:39.937Z,22.40
2019-06-10T08:42:44.136Z,22.60
2019-06-10T08:48:48.109Z,22.80
2019-06-10T08:54:53.641Z,23.30
2019-06-10T09:00:53.924Z,23.90
2019-06-10T09:06:56.315Z,24.20
2019-06-10T09:12:57.771Z,24.60
2019-06-10T09:18:59.386Z,24.10
2019-06-10T09:25:02.919Z,23.80
2019-06-10T09:31:06.691Z,24.50
2019-06-10T09:37:08.250Z,25.00
2019-06-10T09:43:09.903Z,25.90
2019-06-10T09:49:12.791Z,25.40
2019-06-10T09:55:16.446Z,26.00
2019-06-10T10:01:17.999Z,26.10
2019-06-10T10:07:22.512Z,25.30
2019-06-10T10:13:24.271Z,25.00
2019-06-10T10:19:26.934Z,25.60
2019-06-10T10:25:29.249Z,25.40
2019-06-10T10:31:32.466Z,26.90
2019-06-10T10:43:46.796Z,26.30
2019-06-10T10:50:02.838Z,25.60
2019-06-10T10:56:08.264Z,25.50
2019-06-10T11:02:15.465Z,24.80
2019-06-10T11:08:17.469Z,25.50
2019-06-10T11:14:22.876Z,25.80
2019-06-10T11:20:24.087Z,26.00
2019-06-10T11:26:27.715Z,26.40
2019-06-10T11:32:29.678Z,26.70
2019-06-10T11:38:32.962Z,26.60
2019-06-10T11:44:35.578Z,27.20
2019-06-10T11:50:38.056Z,27.50
2019-06-10T11:56:45.056Z,27.00
2019-06-10T12:02:46.596Z,27.50
2019-06-10T12:08:48.928Z,27.40
2019-06-10T12:14:53.944Z,26.70
2019-06-10T12:20:57.586Z,26.10
2019-06-10T12:26:59.623Z,25.90
2019-06-10T12:33:02.824Z,26.20
2019-06-10T12:39:10.538Z,27.60
2019-06-10T12:45:12.795Z,27.70
2019-06-10T12:51:14.441Z,27.50
2019-06-10T12:57:16.520Z,26.90
2019-06-10T13:03:18.317Z,27.50
2019-06-10T13:09:20.003Z,28.60
2019-06-10T13:15:22.120Z,29.10
2019-06-10T13:27:26.145Z,28.90
2019-06-10T13:33:28.273Z,28.90
2019-06-10T13:39:29.851Z,28.40
2019-06-10T13:45:33.236Z,28.00
2019-06-10T13:51:35.603Z,29.10
2019-06-10T13:57:37.491Z,29.10
2019-06-10T14:03:38.920Z,28.70
2019-06-10T14:09:40.685Z,29.10
2019-06-10T14:15:42.911Z,29.00
2019-06-10T14:21:44.495Z,28.70
2019-06-10T14:27:45.993Z,28.00
2019-06-10T14:33:47.559Z,27.20
2019-06-10T14:39:49.000Z,26.40
2019-06-10T14:45:55.839Z,26.70
2019-06-10T14:51:57.356Z,28.60
2019-06-10T15:04:48.881Z,27.80
2019-06-10T15:10:52.836Z,27.70
2019-06-10T15:16:53.937Z,27.30
2019-06-10T15:22:55.625Z,27.30
2019-06-10T15:34:59.077Z,26.60
2019-06-10T15:41:00.665Z,25.90
2019-06-10T15:47:04.009Z,25.90
2019-06-10T15:53:05.597Z,25.00
2019-06-10T15:59:07.237Z,25.40
2019-06-10T16:05:09.088Z,25.50
2019-06-10T16:11:13.755Z,24.90
2019-06-10T16:17:17.382Z,24.80
2019-06-10T16:23:19.717Z,24.20
2019-06-10T16:29:23.805Z,23.80
2019-06-10T16:35:27.380Z,23.80
2019-06-10T16:41:32.331Z,23.60
2019-06-10T16:53:35.738Z,23.00
2019-06-10T16:59:37.657Z,22.60
2019-06-10T17:29:48.530Z,21.90
2019-06-10T17:41:53.890Z,21.80
2019-06-10T17:47:55.591Z,21.80
2019-06-10T17:53:57.338Z,21.70
2019-06-10T18:06:02.800Z,21.20
2019-06-10T18:12:04.700Z,21.20
2019-06-10T18:26:48.543Z,20.90
2019-06-10T18:32:52.402Z,21.00
2019-06-10T18:38:53.420Z,20.50
2019-06-10T18:44:55.026Z,20.60
2019-06-10T18:50:56.608Z,20.30
2019-06-10T18:56:58.422Z,20.10
2019-06-10T19:03:12.173Z,19.90
2019-06-10T19:09:07.063Z,19.70
2019-06-10T19:15:11.909Z,19.60
2019-06-10T19:21:14.263Z,19.50
2019-06-10T19:27:15.851Z,19.30
2019-06-10T19:33:17.369Z,19.30
2019-06-10T19:39:19.057Z,19.30
2019-06-10T19:45:26.860Z,19.20
2019-06-10T19:51:34.652Z,19.00
2019-06-10T19:57:37.477Z,18.80
2019-06-10T20:03:39.678Z,18.60
2019-06-10T20:09:44.530Z,18.50
2019-06-10T20:15:46.666Z,18.60
2019-06-10T20:21:48.943Z,18.60
2019-06-10T20:27:52.420Z,18.60
2019-06-10T20:33:54.142Z,18.50
2019-06-10T20:39:55.623Z,18.40
2019-06-10T20:45:58.294Z,18.40
2019-06-10T20:52:10.753Z,18.40
2019-06-10T20:58:07.321Z,18.30
2019-06-10T21:04:08.247Z,18.40
2019-06-10T21:10:10.091Z,18.40
2019-06-10T21:16:12.639Z,18.40
2019-06-10T21:22:17.203Z,18.30
2019-06-10T21:28:19.768Z,18.40
2019-06-10T21:34:25.104Z,18.70
2019-06-10T21:40:27.108Z,18.90
2019-06-10T21:46:29.385Z,18.70
2019-06-10T21:52:32.452Z,18.60
2019-06-10T21:58:35.394Z,18.30
2019-06-10T22:04:39.919Z,18.00
2019-06-10T22:10:44.159Z,17.80
2019-06-10T22:16:46.284Z,17.60
2019-06-10T22:22:48.571Z,17.50
2019-06-10T22:28:54.103Z,17.20
2019-06-10T22:34:55.390Z,16.90
2019-06-10T22:40:57.385Z,16.50
2019-06-10T22:47:00.112Z,16.30
2019-06-10T22:53:03.828Z,16.00
2019-06-10T22:59:05.712Z,15.90
2019-06-10T23:05:07.859Z,15.90
2019-06-10T23:17:00.026Z,15.90
2019-06-10T23:23:03.159Z,16.10
2019-06-10T23:29:04.845Z,16.00
2019-06-10T23:35:06.533Z,16.10
2019-06-10T23:41:09.710Z,15.80
2019-06-10T23:47:12.725Z,15.70
2019-06-10T23:53:14.406Z,15.50
2019-06-10T23:59:22.501Z,15.50
